Time;durP1;ratioP1;P1;durP2;ratioP2;P2;SDS_P1;SDS_P2;PMS_P1;PMS_P2;Temp;Humidity;BMP_temperature;BMP_pressure;BME280_temperature;BME280_humidity;BME280_pressure;Samples;Min_cycle;Max_cycle;Signal;HPM_P1;HPM_P2
2021/01/06 00:00:04;;;;;;;26.90;15.48;;;;;;;4.22;67.65;101014.60;1712378;83;21741;-54
2021/01/06 00:03:11;;;;;;;29.45;15.75;;;;;;;4.24;67.44;101014.00;1691900;83;21634;-53
2021/01/06 00:06:20;;;;;;;29.50;15.28;;;;;;;4.21;67.52;101019.66;1692863;85;21330;-52
2021/01/06 00:09:26;;;;;;;29.25;15.70;;;;;;;4.27;67.58;101013.75;1712700;82;21247;-52
2021/01/06 00:12:32;;;;;;;25.62;14.98;;;;;;;4.29;67.45;101016.34;1692659;83;21265;-53
2021/01/06 00:15:43;;;;;;;28.45;16.95;;;;;;;4.32;67.37;101018.80;1692693;85;21297;-54
2021/01/06 00:18:51;;;;;;;25.40;15.40;;;;;;;4.23;67.34;101011.41;1712108;82;21283;-53
2021/01/06 00:21:57;;;;;;;25.43;14.53;;;;;;;4.19;67.52;101009.42;1712371;83;21291;-53
2021/01/06 00:25:02;;;;;;;27.48;14.95;;;;;;;4.21;67.64;101014.24;1692921;85;21299;-53
2021/01/06 00:28:09;;;;;;;29.50;16.40;;;;;;;4.27;67.53;101004.75;1693053;83;21299;-53
2021/01/06 00:31:15;;;;;;;31.95;16.48;;;;;;;4.21;67.63;100995.75;1687499;85;21260;-53
2021/01/06 00:34:25;;;;;;;28.98;16.62;;;;;;;4.25;67.73;100996.74;1687570;83;21299;-53
2021/01/06 00:37:31;;;;;;;26.57;16.17;;;;;;;4.31;67.68;100989.48;1718107;82;21724;-55
2021/01/06 00:40:40;;;;;;;31.07;16.40;;;;;;;4.33;67.51;100987.52;1717874;83;21221;-54
2021/01/06 00:43:46;;;;;;;27.42;15.15;;;;;;;4.34;67.49;100991.94;1691717;83;21248;-53
2021/01/06 00:46:53;;;;;;;29.02;15.78;;;;;;;4.31;67.53;101001.67;1687514;85;21777;-54
2021/01/06 00:49:59;;;;;;;31.95;17.80;;;;;;;4.34;67.51;101000.59;1687461;85;21248;-55
2021/01/06 00:53:14;;;;;;;28.70;16.97;;;;;;;4.32;67.48;101002.55;1687268;83;21259;-54
2021/01/06 00:56:21;;;;;;;27.80;15.90;;;;;;;4.32;67.61;100997.13;1722911;83;21407;-54
2021/01/06 00:59:27;;;;;;;26.40;16.50;;;;;;;4.37;67.48;100993.56;1723192;82;21438;-54
2021/01/06 01:02:32;;;;;;;32.38;17.73;;;;;;;4.36;67.54;101004.05;1723227;82;21237;-54
2021/01/06 01:05:40;;;;;;;27.42;16.42;;;;;;;4.37;67.50;100997.62;1722898;83;21367;-53
2021/01/06 01:08:44;;;;;;;25.43;16.57;;;;;;;4.37;67.51;100989.02;1723072;82;21730;-54
2021/01/06 01:11:50;;;;;;;33.45;16.12;;;;;;;4.34;67.49;100967.55;1723115;83;21464;-54
2021/01/06 01:14:57;;;;;;;27.73;15.45;;;;;;;4.34;67.50;100964.00;1723058;83;21371;-54
2021/01/06 01:18:04;;;;;;;32.83;17.05;;;;;;;4.36;67.65;100958.81;1723075;82;21301;-53
2021/01/06 01:21:12;;;;;;;27.87;15.80;;;;;;;4.44;67.67;100966.33;1723010;83;21588;-53
2021/01/06 01:24:20;;;;;;;30.48;18.48;;;;;;;4.43;67.54;100964.61;1720268;82;21891;-53
2021/01/06 01:27:25;;;;;;;30.68;17.15;;;;;;;4.38;67.61;100955.98;1712363;84;21205;-53
2021/01/06 01:30:32;;;;;;;31.07;15.90;;;;;;;4.30;67.76;100967.44;1712596;83;21208;-53
2021/01/06 01:33:42;;;;;;;34.03;16.40;;;;;;;4.25;67.91;100972.36;1687807;83;21233;-53
2021/01/06 01:36:57;;;;;;;27.13;16.30;;;;;;;4.25;68.05;100986.42;1687747;85;21225;-53
2021/01/06 01:40:01;;;;;;;;;;;;;;;4.23;68.17;100986.50;1694553;85;21247;-53
2021/01/06 01:43:16;;;;;;;28.65;16.85;;;;;;;4.22;68.30;100978.02;1686431;83;20637;-53
2021/01/06 01:46:48;;;;;;;31.27;17.02;;;;;;;4.18;68.52;100980.62;1712543;83;21216;-53
2021/01/06 01:49:56;;;;;;;27.80;14.95;;;;;;;4.22;68.71;100986.15;1712486;84;21227;-54
2021/01/06 01:53:15;;;;;;;40.83;19.65;;;;;;;4.20;68.73;100969.14;1711241;82;21298;-54
2021/01/06 01:56:20;;;;;;;35.13;17.48;;;;;;;4.14;68.91;100968.27;1687744;85;21237;-54
2021/01/06 01:59:46;;;;;;;33.38;18.45;;;;;;;4.11;69.06;100976.65;1687761;83;21221;-54
2021/01/06 02:03:18;;;;;;;29.23;16.57;;;;;;;4.13;69.33;100985.53;1686764;83;21774;-54
2021/01/06 02:06:28;;;;;;;33.40;18.37;;;;;;;4.21;69.36;101007.47;1712281;83;21244;-53
2021/01/06 02:09:37;;;;;;;31.35;18.15;;;;;;;4.22;69.27;100981.21;1712981;82;21267;-53
2021/01/06 02:12:51;;;;;;;33.63;18.10;;;;;;;4.20;69.29;100967.78;1717331;82;21272;-54
2021/01/06 02:16:37;;;;;;;35.88;18.82;;;;;;;4.12;69.44;100977.01;1673355;85;21544;-53
2021/01/06 02:19:50;;;;;;;38.60;19.17;;;;;;;4.16;69.63;100977.64;1703231;83;21244;-54
2021/01/06 02:22:57;;;;;;;33.45;18.10;;;;;;;4.24;69.67;100984.19;1712768;82;21365;-53
2021/01/06 02:26:02;;;;;;;36.65;18.80;;;;;;;4.26;69.50;100987.65;1715293;80;21413;-54
2021/01/06 02:29:08;;;;;;;33.65;19.05;;;;;;;4.25;69.54;100990.48;1718207;82;21385;-53
2021/01/06 02:32:14;;;;;;;38.35;18.75;;;;;;;4.27;69.59;100988.48;1717802;83;21397;-54
2021/01/06 02:35:20;;;;;;;38.20;17.42;;;;;;;4.30;69.59;100971.98;1720129;83;21796;-54
2021/01/06 02:38:28;;;;;;;39.73;19.17;;;;;;;4.31;69.54;100969.15;1717934;82;21753;-54
2021/01/06 02:41:34;;;;;;;33.18;18.45;;;;;;;4.36;69.54;100977.78;1717935;83;21319;-53
2021/01/06 02:44:39;;;;;;;30.05;17.48;;;;;;;4.30;69.36;100986.41;1717699;82;21988;-54
2021/01/06 02:47:49;;;;;;;31.57;20.10;;;;;;;4.29;69.49;100973.86;1685838;84;21337;-54
2021/01/06 02:50:57;;;;;;;31.50;18.23;;;;;;;4.23;69.48;100968.89;1685631;85;21348;-55
2021/01/06 02:54:08;;;;;;;30.90;18.67;;;;;;;4.23;69.67;100974.31;1728082;81;21227;-54
2021/01/06 02:57:14;;;;;;;34.33;17.40;;;;;;;4.28;69.56;100971.27;1685781;84;21269;-54
2021/01/06 03:00:24;;;;;;;37.83;18.60;;;;;;;4.26;69.46;100965.09;1685653;85;21880;-54
2021/01/06 03:03:35;;;;;;;34.92;18.85;;;;;;;4.26;69.59;100954.26;1727926;81;21247;-53
2021/01/06 03:07:04;;;;;;;31.07;18.60;;;;;;;4.17;69.35;100962.61;1685999;84;21317;-54
2021/01/06 03:10:13;;;;;;;28.90;16.00;;;;;;;4.06;69.77;100953.62;1655868;86;21768;-54
2021/01/06 03:13:19;;;;;;;40.20;18.92;;;;;;;4.07;69.95;100957.57;1720096;82;21221;-53
2021/01/06 03:16:25;;;;;;;28.60;16.67;;;;;;;4.10;69.98;100953.74;1668289;84;21522;-53
2021/01/06 03:19:33;;;;;;;28.67;18.62;;;;;;;4.12;69.96;100955.34;1685530;84;21367;-54
2021/01/06 03:22:40;;;;;;;34.43;18.35;;;;;;;4.11;70.07;100960.39;1685799;84;21344;-53
2021/01/06 03:25:46;;;;;;;29.42;17.90;;;;;;;4.17;70.12;100959.06;1655666;86;21236;-54
2021/01/06 03:28:53;;;;;;;31.48;18.42;;;;;;;4.21;70.05;100966.83;1720147;82;21378;-54
2021/01/06 03:31:59;;;;;;;27.90;16.85;;;;;;;4.26;69.94;100956.48;1695012;84;21172;-54
2021/01/06 03:35:13;;;;;;;33.75;17.02;;;;;;;4.26;69.80;100958.33;1689511;84;21370;-54
2021/01/06 03:38:49;;;;;;;34.83;19.25;;;;;;;4.26;69.60;100959.68;1720078;82;21409;-53
2021/01/06 03:41:55;;;;;;;33.40;17.98;;;;;;;4.11;69.86;100960.39;1702867;83;21374;-53
2021/01/06 03:45:01;;;;;;;36.80;21.07;;;;;;;4.07;69.97;100962.98;1695116;84;21382;-53
2021/01/06 03:48:13;;;;;;;26.75;16.07;;;;;;;4.07;70.22;100968.89;1695205;83;21209;-53
2021/01/06 03:51:53;;;;;;;31.62;18.37;;;;;;;4.13;70.21;100973.34;1689701;84;21359;-53
2021/01/06 03:55:33;;;;;;;33.53;15.08;;;;;;;4.03;70.20;100961.97;1720001;83;21379;-54
2021/01/06 03:58:49;;;;;;;31.15;18.07;;;;;;;4.06;70.40;100970.72;1719262;82;21247;-53
2021/01/06 04:02:09;;;;;;;30.43;18.57;;;;;;;4.12;70.37;100960.75;1695012;84;21498;-53
2021/01/06 04:05:22;;;;;;;31.55;18.87;;;;;;;4.13;70.40;100973.34;1695277;84;21314;-52
2021/01/06 04:08:41;;;;;;;31.73;19.57;;;;;;;4.23;70.35;100976.19;1656125;85;21813;-52
2021/01/06 04:11:46;;;;;;;34.23;19.23;;;;;;;4.30;70.18;100976.05;1705800;83;21200;-52
2021/01/06 04:14:52;;;;;;;27.60;17.35;;;;;;;4.35;69.99;100977.42;1687825;83;21520;-52
2021/01/06 04:17:59;;;;;;;28.85;15.45;;;;;;;4.38;69.80;100971.76;1687748;83;21219;-52
2021/01/06 04:21:05;;;;;;;30.30;17.82;;;;;;;4.39;69.65;100973.47;1702068;83;21247;-53
2021/01/06 04:24:13;;;;;;;29.50;18.05;;;;;;;4.42;69.65;100973.22;1694993;83;21421;-54
2021/01/06 04:27:21;;;;;;;34.92;18.27;;;;;;;4.47;69.58;100979.14;1695417;79;21392;-51
2021/01/06 04:30:58;;;;;;;34.73;18.35;;;;;;;4.51;69.40;100977.06;1689765;84;21769;-52
2021/01/06 04:34:04;;;;;;;35.25;18.92;;;;;;;4.48;69.42;100975.95;1721066;82;21374;-53
2021/01/06 04:37:10;;;;;;;31.73;16.93;;;;;;;4.49;69.32;100985.80;1720193;83;21373;-52
2021/01/06 04:40:17;;;;;;;36.63;18.12;;;;;;;4.48;69.31;100987.67;1686786;84;21221;-53
2021/01/06 04:43:40;;;;;;;36.80;19.15;;;;;;;4.49;69.35;100985.31;1685532;84;21214;-52
2021/01/06 04:46:58;;;;;;;30.57;17.20;;;;;;;4.54;69.28;100984.94;1655697;86;21236;-53
2021/01/06 04:50:38;;;;;;;39.55;19.40;;;;;;;4.56;69.16;100983.85;1720042;83;21354;-53
2021/01/06 04:54:13;;;;;;;33.23;19.50;;;;;;;4.50;69.03;100973.99;1685790;83;21214;-52
2021/01/06 04:57:38;;;;;;;44.15;21.45;;;;;;;4.43;69.36;100972.26;1655864;86;21228;-53
2021/01/06 05:01:04;;;;;;;37.73;18.92;;;;;;;4.45;69.37;100968.94;1720225;83;21381;-52
2021/01/06 05:04:42;;;;;;;39.90;19.05;;;;;;;4.51;69.37;100972.51;1633289;86;21248;-52
2021/01/06 05:08:20;;;;;;;42.08;20.60;;;;;;;4.54;69.35;100978.16;1655987;85;21197;-52
2021/01/06 05:12:08;;;;;;;35.63;19.87;;;;;;;4.57;69.23;100977.43;1685768;84;21162;-53
2021/01/06 05:15:42;;;;;;;37.85;19.87;;;;;;;4.58;69.33;100981.02;1694829;84;21294;-53
2021/01/06 05:18:49;;;;;;;43.42;20.48;;;;;;;4.63;69.40;100984.19;1689690;83;21362;-52
2021/01/06 05:21:54;;;;;;;37.33;19.15;;;;;;;4.63;69.35;100982.84;1717744;83;21280;-53
2021/01/06 05:25:00;;;;;;;37.13;17.55;;;;;;;4.58;69.32;100987.28;1697522;83;21391;-53
2021/01/06 05:28:05;;;;;;;38.92;20.52;;;;;;;4.59;69.48;100985.44;1685561;84;21384;-53
2021/01/06 05:31:12;;;;;;;38.30;17.90;;;;;;;4.59;69.58;100977.30;1655861;86;21357;-52
2021/01/06 05:34:18;;;;;;;32.13;18.85;;;;;;;4.60;69.71;100976.31;1655795;85;21264;-53
2021/01/06 05:37:24;;;;;;;38.78;19.25;;;;;;;4.58;69.89;100983.21;1655130;86;21219;-53
2021/01/06 05:40:30;;;;;;;39.15;18.48;;;;;;;4.52;70.02;100978.29;1700435;83;21272;-53
2021/01/06 05:43:45;;;;;;;32.73;17.42;;;;;;;4.45;70.22;100985.69;1722243;82;21403;-53
2021/01/06 05:46:53;;;;;;;37.67;18.67;;;;;;;4.41;70.53;100995.91;1722503;83;21826;-53
2021/01/06 05:50:01;;;;;;;38.60;18.65;;;;;;;4.43;70.71;100997.14;1722899;83;21340;-53
2021/01/06 05:54:02;;;;;;;34.03;18.23;;;;;;;4.45;70.90;100989.27;1723094;82;21430;-53
2021/01/06 05:57:43;;;;;;;36.73;19.00;;;;;;;4.48;71.11;100983.60;1722903;83;21472;-52
2021/01/06 06:00:54;;;;;;;28.73;16.87;;;;;;;4.46;71.16;100980.14;1721935;83;21387;-53
2021/01/06 06:04:40;;;;;;;28.80;16.23;;;;;;;4.48;71.35;100975.95;1704917;83;21420;-53
2021/01/06 06:08:11;;;;;;;47.00;22.02;;;;;;;4.46;71.46;100988.27;1707157;82;21360;-53
2021/01/06 06:11:25;;;;;;;35.00;18.90;;;;;;;4.51;71.56;100988.77;1720851;82;21275;-53
2021/01/06 06:15:00;;;;;;;30.17;18.67;;;;;;;4.53;71.55;100986.78;1712620;83;21197;-52
2021/01/06 06:18:26;;;;;;;36.85;19.00;;;;;;;4.56;71.56;100988.40;1661251;85;21257;-52
2021/01/06 06:21:47;;;;;;;55.45;30.17;;;;;;;4.58;71.48;100992.70;1717141;83;21227;-52
2021/01/06 06:25:06;;;;;;;39.00;19.25;;;;;;;4.60;71.46;100996.16;1659948;85;21755;-53
2021/01/06 06:28:26;;;;;;;39.58;21.33;;;;;;;4.57;71.29;100999.13;1703325;83;21233;-53
2021/01/06 06:31:37;;;;;;;40.50;18.95;;;;;;;4.51;71.36;101000.97;1683467;81;21239;-53
2021/01/06 06:34:48;;;;;;;31.35;18.80;;;;;;;4.49;71.50;101011.55;1716013;82;21370;-53
2021/01/06 06:38:16;;;;;;;37.45;19.55;;;;;;;4.51;71.72;101016.37;1687983;83;21240;-52
2021/01/06 06:41:34;;;;;;;40.65;19.02;;;;;;;4.52;71.69;101016.24;1687956;85;21239;-53
2021/01/06 06:44:41;;;;;;;47.23;21.45;;;;;;;4.50;71.69;101006.00;1687792;83;21247;-53
2021/01/06 06:47:59;;;;;;;46.77;23.38;;;;;;;4.52;71.84;101015.38;1715405;82;21204;-51
2021/01/06 06:51:25;;;;;;;45.67;23.07;;;;;;;4.58;71.85;101008.97;1712935;83;21259;-52
2021/01/06 06:54:35;;;;;;;43.75;21.80;;;;;;;4.61;71.70;101003.30;1694762;82;21236;-53
2021/01/06 06:57:53;;;;;;;48.13;20.27;;;;;;;4.63;71.78;101007.75;1711458;82;21169;-53
2021/01/06 07:00:59;;;;;;;41.02;20.97;;;;;;;4.67;71.84;101007.86;1716363;83;22178;-53
2021/01/06 07:04:15;;;;;;;41.28;20.12;;;;;;;4.71;71.82;101014.78;1715611;83;21243;-53
2021/01/06 07:07:49;;;;;;;42.13;19.42;;;;;;;4.69;71.75;101008.61;1694707;83;21761;-53
2021/01/06 07:11:34;;;;;;;43.73;20.27;;;;;;;4.68;71.72;101009.61;1714633;83;21200;-53
2021/01/06 07:14:47;;;;;;;48.98;20.10;;;;;;;4.71;71.84;101006.65;1715975;82;21792;-52
2021/01/06 07:17:53;;;;;;;45.60;22.30;;;;;;;4.72;71.89;101005.17;1705093;82;21243;-53
2021/01/06 07:21:20;;;;;;;46.18;20.50;;;;;;;4.73;71.94;100999.23;1714666;83;22454;-53
2021/01/06 07:24:27;;;;;;;46.25;19.12;;;;;;;4.76;71.99;100999.02;1713184;83;21557;-51
2021/01/06 07:27:37;;;;;;;39.10;20.50;;;;;;;4.75;71.85;100998.63;1713933;83;21346;-52
2021/01/06 07:30:50;;;;;;;40.95;19.67;;;;;;;4.72;72.12;100998.88;1716520;81;21382;-52
2021/01/06 07:34:02;;;;;;;40.17;19.57;;;;;;;4.72;72.06;100998.88;1715033;83;22236;-54
2021/01/06 07:37:08;;;;;;;40.65;18.55;;;;;;;4.70;72.27;101008.48;1690559;84;21209;-53
2021/01/06 07:40:24;;;;;;;44.60;19.55;;;;;;;4.69;72.27;101004.55;1696009;83;21514;-52
2021/01/06 07:43:38;;;;;;;45.05;18.82;;;;;;;4.61;72.34;101008.72;1690174;85;21229;-52
2021/01/06 07:47:03;;;;;;;42.98;20.20;;;;;;;4.57;72.49;101016.75;1716524;83;21259;-52
2021/01/06 07:50:12;;;;;;;48.52;20.57;;;;;;;4.58;72.80;101009.48;1716396;83;21204;-52
2021/01/06 07:53:20;;;;;;;46.70;20.37;;;;;;;4.66;72.95;101011.09;1654704;86;21318;-52
2021/01/06 07:56:36;;;;;;;44.77;19.98;;;;;;;4.70;72.92;101008.48;1715746;83;21888;-53
2021/01/06 08:00:03;;;;;;;41.00;18.35;;;;;;;4.75;72.93;101018.48;1685118;84;21240;-52
2021/01/06 08:03:32;;;;;;;54.23;21.57;;;;;;;4.79;72.81;101019.09;1693750;83;21777;-52
2021/01/06 08:07:07;;;;;;;41.33;18.82;;;;;;;4.79;72.65;101015.03;1683580;85;21248;-52
2021/01/06 08:10:23;;;;;;;50.58;19.55;;;;;;;4.77;72.88;101021.06;1717391;83;21197;-54
2021/01/06 08:13:37;;;;;;;50.88;20.20;;;;;;;4.78;72.80;101022.30;1690567;84;21778;-53
2021/01/06 08:16:57;;;;;;;43.98;18.80;;;;;;;4.80;72.87;101020.33;1705637;83;21268;-52
2021/01/06 08:20:11;;;;;;;47.83;19.20;;;;;;;4.82;72.87;101020.20;1677458;84;21189;-53
2021/01/06 08:23:28;;;;;;;40.63;18.02;;;;;;;4.84;72.95;101023.63;1709176;82;21247;-53
2021/01/06 08:26:37;;;;;;;41.28;17.20;;;;;;;4.89;72.88;101018.22;1699823;83;21228;-52
2021/01/06 08:29:42;;;;;;;46.02;19.57;;;;;;;4.87;72.70;101024.77;1694662;83;21591;-53
2021/01/06 08:32:48;;;;;;;47.30;19.70;;;;;;;4.81;72.78;101022.53;1700826;82;21204;-52
2021/01/06 08:36:00;;;;;;;42.62;18.37;;;;;;;4.78;72.86;101020.06;1713768;83;22081;-54
2021/01/06 08:39:25;;;;;;;46.75;19.60;;;;;;;4.76;73.17;101023.42;1674950;85;21272;-52
2021/01/06 08:42:37;;;;;;;49.48;18.67;;;;;;;4.80;73.33;101016.75;1703670;83;21228;-52
2021/01/06 08:45:43;;;;;;;42.38;17.75;;;;;;;4.83;73.25;101030.06;1703818;83;21213;-52
2021/01/06 08:48:50;;;;;;;51.55;20.27;;;;;;;4.82;73.33;101019.69;1675871;85;21221;-53
2021/01/06 08:51:56;;;;;;;47.03;19.37;;;;;;;4.84;73.24;101020.92;1704015;83;21200;-53
2021/01/06 08:55:16;;;;;;;39.33;16.77;;;;;;;4.86;73.43;101021.67;1706756;83;21210;-53
2021/01/06 08:58:22;;;;;;;46.35;19.12;;;;;;;4.91;73.49;101018.97;1700989;83;21612;-53
2021/01/06 09:01:31;;;;;;;39.83;17.65;;;;;;;4.89;73.45;101018.70;1673919;84;21237;-53
2021/01/06 09:04:50;;;;;;;44.70;18.17;;;;;;;4.95;73.59;101016.36;1706319;83;21272;-52
2021/01/06 09:07:55;;;;;;;46.20;19.37;;;;;;;5.06;73.62;101016.34;1681177;84;21220;-53
2021/01/06 09:11:31;;;;;;;41.88;19.37;;;;;;;5.13;73.33;101009.45;1662268;85;21847;-52
2021/01/06 09:14:44;;;;;;;45.05;19.55;;;;;;;5.12;73.24;101011.77;1703203;83;21623;-52
2021/01/06 09:18:03;;;;;;;45.35;18.42;;;;;;;5.09;73.16;101003.05;1696946;83;21231;-53
2021/01/06 09:21:31;;;;;;;40.83;21.75;;;;;;;5.02;73.11;101011.30;1700892;83;21475;-53
2021/01/06 09:24:41;;;;;;;48.50;20.85;;;;;;;5.00;73.45;101015.98;1705645;83;21299;-53
2021/01/06 09:27:53;;;;;;;47.67;19.62;;;;;;;5.04;73.39;101012.92;1707285;82;21690;-52
2021/01/06 09:30:57;;;;;;;46.88;19.40;;;;;;;5.05;73.57;101013.77;1675658;85;21221;-53
2021/01/06 09:34:08;;;;;;;50.73;21.97;;;;;;;5.10;73.48;101011.53;1703495;83;21220;-53
2021/01/06 09:37:14;;;;;;;47.50;19.48;;;;;;;5.12;73.51;101006.86;1703892;83;21713;-53
2021/01/06 09:40:25;;;;;;;54.63;20.88;;;;;;;5.20;73.46;101011.16;1713798;83;21215;-53
2021/01/06 09:43:41;;;;;;;45.90;20.68;;;;;;;5.21;73.30;101017.81;1689649;83;21353;-52
2021/01/06 09:47:08;;;;;;;47.08;21.85;;;;;;;5.23;73.38;101002.24;1715259;83;21196;-53
2021/01/06 09:50:40;;;;;;;51.83;20.70;;;;;;;5.21;73.26;101003.37;1718127;82;21342;-53
2021/01/06 09:53:45;;;;;;;47.60;20.00;;;;;;;5.21;73.38;101002.89;1659353;85;21224;-53
2021/01/06 09:56:50;;;;;;;43.70;18.65;;;;;;;5.18;73.37;101004.98;1658846;86;21181;-52
2021/01/06 09:59:57;;;;;;;42.98;18.82;;;;;;;5.17;73.46;101008.19;1653297;85;21225;-53
2021/01/06 10:03:02;;;;;;;53.10;22.60;;;;;;;5.17;73.58;101001.92;1680806;84;21252;-52
2021/01/06 10:06:23;;;;;;;58.58;25.20;;;;;;;5.21;73.60;100996.59;1703988;83;21244;-54
2021/01/06 10:09:55;;;;;;;56.88;23.00;;;;;;;5.26;73.54;100999.31;1654726;86;21349;-54
2021/01/06 10:13:32;;;;;;;48.23;20.05;;;;;;;5.26;73.50;100999.80;1660926;85;21283;-54
2021/01/06 10:16:47;;;;;;;51.13;19.73;;;;;;;5.30;73.54;101008.03;1704231;82;21216;-52
2021/01/06 10:20:03;;;;;;;56.83;23.87;;;;;;;5.30;73.31;101012.11;1670280;85;21272;-53
2021/01/06 10:23:48;;;;;;;47.90;20.82;;;;;;;5.31;73.40;101007.06;1708964;82;21232;-53
2021/01/06 10:27:35;;;;;;;52.48;21.05;;;;;;;5.32;73.27;101001.98;1701609;84;21598;-53
2021/01/06 10:30:41;;;;;;;58.08;20.62;;;;;;;5.32;73.37;101003.34;1610941;87;21638;-54
2021/01/06 10:34:09;;;;;;;51.02;20.82;;;;;;;5.24;73.28;101003.12;1709149;82;21267;-53
2021/01/06 10:37:35;;;;;;;56.63;20.17;;;;;;;5.17;73.33;101001.92;1707541;83;21224;-54
2021/01/06 10:40:45;;;;;;;64.32;23.22;;;;;;;5.09;73.49;100998.45;1704732;83;21663;-55
2021/01/06 10:43:55;;;;;;;56.42;22.42;;;;;;;5.08;73.74;100999.94;1702988;82;21299;-56
2021/01/06 10:47:02;;;;;;;58.30;23.15;;;;;;;5.17;73.99;100995.13;1704270;83;21255;-56
2021/01/06 10:50:33;;;;;;;56.85;23.47;;;;;;;5.25;73.85;100996.72;1708696;84;21207;-55
2021/01/06 10:53:39;;;;;;;57.50;23.32;;;;;;;5.26;73.78;100991.65;1710758;83;21212;-55
2021/01/06 10:56:45;;;;;;;59.38;23.15;;;;;;;5.31;73.79;100995.69;1708019;84;21184;-55
2021/01/06 11:00:31;;;;;;;61.28;22.15;;;;;;;5.33;73.67;100991.00;1711556;82;21268;-56
2021/01/06 11:03:58;;;;;;;66.47;25.02;;;;;;;5.31;73.67;100997.05;1710051;83;21829;-55
2021/01/06 11:07:24;;;;;;;60.15;24.57;;;;;;;5.34;73.88;100995.47;1685388;85;21210;-55
2021/01/06 11:10:44;;;;;;;62.13;24.65;;;;;;;5.42;73.89;100988.03;1651772;86;21500;-55
2021/01/06 11:14:40;;;;;;;65.85;24.50;;;;;;;5.44;73.77;100989.61;1704000;82;21220;-56
2021/01/06 11:17:50;;;;;;;63.68;25.10;;;;;;;5.44;73.94;100987.41;1690739;83;21231;-55
2021/01/06 11:21:18;;;;;;;92.02;35.43;;;;;;;5.52;73.81;100982.17;1704198;83;21220;-55
2021/01/06 11:25:03;;;;;;;61.15;24.20;;;;;;;5.52;73.77;100978.09;1684680;85;21809;-55
2021/01/06 11:28:14;;;;;;;62.45;24.63;;;;;;;5.56;73.81;100983.17;1672217;85;21284;-55
2021/01/06 11:31:36;;;;;;;78.30;27.67;;;;;;;5.56;73.61;100989.09;1671821;85;21341;-56
2021/01/06 11:34:47;;;;;;;69.92;25.12;;;;;;;5.53;73.64;100988.86;1706155;80;21448;-55
2021/01/06 11:37:53;;;;;;;60.55;24.05;;;;;;;5.47;73.75;100987.99;1706420;83;21804;-56
2021/01/06 11:40:59;;;;;;;71.50;25.88;;;;;;;5.50;74.00;100987.73;1694929;83;21260;-55
2021/01/06 11:44:37;;;;;;;67.78;27.52;;;;;;;5.55;74.02;100994.16;1701731;83;21228;-55
2021/01/06 11:48:05;;;;;;;65.55;26.93;;;;;;;5.60;73.86;100998.68;1709646;82;21248;-55
2021/01/06 11:51:29;;;;;;;70.97;26.30;;;;;;;5.55;73.67;101004.50;1698265;83;21263;-54
2021/01/06 11:54:36;;;;;;;71.50;26.07;;;;;;;5.53;73.76;100996.13;1709560;83;21197;-55
2021/01/06 11:58:19;;;;;;;63.95;26.05;;;;;;;5.52;73.89;100997.11;1709748;83;21289;-55
2021/01/06 12:01:45;;;;;;;;;;;;;;;5.59;74.11;101002.41;1713524;83;21740;-56
2021/01/06 12:05:10;;;;;;;60.00;24.27;;;;;;;5.67;74.06;101003.48;1705546;84;20252;-57
2021/01/06 12:08:47;;;;;;;61.70;26.27;;;;;;;5.75;74.04;101006.91;1708685;84;21788;-55
2021/01/06 12:12:07;;;;;;;69.25;26.30;;;;;;;5.77;73.72;101009.01;1708647;84;21209;-55
2021/01/06 12:15:40;;;;;;;80.53;30.30;;;;;;;5.77;73.62;101010.37;1661835;84;21193;-55
2021/01/06 12:19:16;;;;;;;64.37;25.62;;;;;;;5.66;73.54;101005.82;1711007;84;21793;-55
2021/01/06 12:22:23;;;;;;;70.25;27.40;;;;;;;5.69;73.79;101012.87;1698306;83;21271;-57
2021/01/06 12:25:38;;;;;;;65.00;25.50;;;;;;;5.76;73.81;101012.70;1681746;85;21239;-56
2021/01/06 12:28:55;;;;;;;78.10;27.05;;;;;;;5.80;73.67;101021.81;1662481;86;21251;-56
2021/01/06 12:32:19;;;;;;;66.60;26.77;;;;;;;5.78;73.64;101010.23;1682259;85;21523;-56
2021/01/06 12:35:40;;;;;;;67.35;26.02;;;;;;;5.82;73.78;101012.20;1666814;82;21255;-56
2021/01/06 12:38:45;;;;;;;67.87;27.55;;;;;;;5.85;73.52;101008.73;1685093;83;21243;-56
2021/01/06 12:42:03;;;;;;;80.35;29.77;;;;;;;5.82;73.59;101009.48;1685472;85;21220;-56
2021/01/06 12:45:37;;;;;;;71.97;29.30;;;;;;;5.87;73.81;101005.88;1687291;83;21228;-55
2021/01/06 12:49:17;;;;;;;73.70;29.52;;;;;;;5.92;73.77;101009.08;1691919;83;21440;-55
2021/01/06 12:52:45;;;;;;;82.60;31.02;;;;;;;5.97;73.70;101006.34;1711342;83;21574;-55
2021/01/06 12:56:12;;;;;;;80.87;30.52;;;;;;;5.97;73.60;101004.12;1690420;85;21355;-56
2021/01/06 12:59:22;;;;;;;71.15;28.00;;;;;;;5.98;73.67;101007.19;1705006;82;21232;-55
2021/01/06 13:02:45;;;;;;;77.12;31.55;;;;;;;6.03;73.72;101009.02;1706718;83;21232;-55
2021/01/06 13:05:52;;;;;;;72.30;29.85;;;;;;;6.07;73.67;101000.98;1691778;83;21742;-56
2021/01/06 13:09:05;;;;;;;84.07;30.02;;;;;;;6.10;73.60;101009.71;1680181;83;21229;-55
2021/01/06 13:12:26;;;;;;;89.35;33.95;;;;;;;6.07;73.50;101009.14;1698417;83;21794;-56
2021/01/06 13:15:47;;;;;;;81.60;31.55;;;;;;;6.07;73.64;101012.70;1692718;83;21219;-56
2021/01/06 13:19:00;;;;;;;81.42;31.40;;;;;;;6.07;73.61;101005.06;1691158;83;21487;-56
2021/01/06 13:22:26;;;;;;;79.58;32.17;;;;;;;6.10;73.64;101012.95;1691044;83;21288;-57
2021/01/06 13:25:44;;;;;;;76.77;30.12;;;;;;;6.13;73.68;101012.68;1673557;85;21730;-56
2021/01/06 13:29:17;;;;;;;80.32;30.08;;;;;;;6.17;73.74;101015.48;1626911;85;21267;-56
2021/01/06 13:33:00;;;;;;;84.92;30.80;;;;;;;6.18;73.62;101013.15;1689672;84;21204;-56
2021/01/06 13:36:09;;;;;;;;;;;;;;;6.14;73.44;101007.59;1716336;83;21856;-56
2021/01/06 13:39:37;;;;;;;72.12;28.23;;;;;;;6.08;73.70;101017.64;1711265;83;20243;-56
2021/01/06 13:43:02;;;;;;;77.62;30.45;;;;;;;6.07;73.80;101025.45;1713769;83;21213;-55
2021/01/06 13:46:21;;;;;;;72.00;30.30;;;;;;;6.02;73.88;101022.26;1663989;86;21272;-56
2021/01/06 13:49:38;;;;;;;82.53;29.42;;;;;;;5.99;73.98;101025.23;1683372;84;21378;-56
2021/01/06 13:52:46;;;;;;;74.77;29.32;;;;;;;5.96;74.17;101022.78;1672774;84;21193;-56
2021/01/06 13:56:18;;;;;;;79.62;30.90;;;;;;;5.95;74.46;101021.04;1683172;85;21208;-56
2021/01/06 13:59:52;;;;;;;78.72;29.85;;;;;;;5.97;74.41;101022.66;1683257;84;21220;-56
2021/01/06 14:03:26;;;;;;;72.78;31.37;;;;;;;6.00;74.57;101027.83;1654435;85;21389;-56
2021/01/06 14:06:33;;;;;;;71.65;30.97;;;;;;;6.05;74.44;101038.30;1682980;85;21386;-56
2021/01/06 14:10:05;;;;;;;85.72;33.70;;;;;;;6.04;74.41;101036.06;1654223;85;21464;-55
2021/01/06 14:13:39;;;;;;;65.35;30.15;;;;;;;6.01;74.41;101032.25;1686727;84;21442;-56
2021/01/06 14:17:07;;;;;;;68.02;29.82;;;;;;;5.98;74.53;101027.57;1671674;85;21379;-56
2021/01/06 14:20:53;;;;;;;77.40;31.87;;;;;;;6.00;74.69;101026.95;1673799;84;21375;-55
2021/01/06 14:24:02;;;;;;;80.03;31.37;;;;;;;6.02;74.63;101029.05;1623837;88;21261;-55
2021/01/06 14:27:30;;;;;;;80.57;32.28;;;;;;;6.07;74.71;101029.52;1674039;84;21248;-55
2021/01/06 14:30:47;;;;;;;70.97;29.90;;;;;;;6.08;74.55;101020.36;1662883;86;21208;-56
2021/01/06 14:34:13;;;;;;;66.85;29.45;;;;;;;6.07;74.69;101024.92;1680547;85;22012;-55
2021/01/06 14:37:32;;;;;;;61.70;26.70;;;;;;;6.08;74.63;101024.44;1686686;83;21250;-55
2021/01/06 14:40:43;;;;;;;72.95;33.05;;;;;;;6.07;74.59;101024.09;1693404;84;21190;-55
2021/01/06 14:43:58;;;;;;;81.17;31.33;;;;;;;6.05;74.55;101027.42;1688467;83;21853;-55
2021/01/06 14:47:16;;;;;;;73.60;31.62;;;;;;;6.06;74.78;101020.98;1718299;83;21212;-55
2021/01/06 14:50:29;;;;;;;75.65;30.80;;;;;;;6.11;74.73;101025.53;1637225;87;21204;-55
2021/01/06 14:53:48;;;;;;;71.95;29.67;;;;;;;6.15;74.74;101026.14;1628155;86;21755;-56
2021/01/06 14:56:57;;;;;;;62.45;29.80;;;;;;;6.16;74.70;101019.20;1690926;84;21876;-56
2021/01/06 15:00:25;;;;;;;72.10;32.45;;;;;;;6.19;74.64;101025.73;1666541;86;21189;-56
2021/01/06 15:04:00;;;;;;;72.25;31.62;;;;;;;6.23;74.52;101029.94;1666984;84;21208;-55